Golden Iris — 3FZK4 — position and weather

sailwx.info

Track history (hours):
 
Tides and Currents Weather Stations Pressure Air Temp Water Temp Dewpoint Dewpoint Depression Visibility Wind Speed Wind Dir Waves Ship Positions

Golden Iris

Last reported at 2015-Jul-27 23:33 UTC. Time now 2015-Jul-28 01:29 UTC.
Position N 36°20' E 027°39'.

Length 180 m; draft 6 m.

Type: Passenger vessel. MMSI: 371771000.

Date/timePositionNaut miles runAvg speedWind from/ knotsBaromVisibWave heightAir tempDewpointWater temp
2015-Jul-27 23:33N 36°20' E 027°39'213 9.2
2015-Jul-27 00:19N 34°41' E 031°31'1213.8
2015-Jul-26 23:28N 34°35' E 031°43'1314.0
2015-Jul-26 22:33N 34°28' E 031°56'1414.0
2015-Jul-26 21:34N 34°21' E 032°10'1414.2
2015-Jul-26 20:33N 34°13' E 032°25'1413.8
2015-Jul-26 19:33N 34°05' E 032°39'1413.4
2015-Jul-26 18:33N 33°58' E 032°52'1313.2
2015-Jul-26 17:33N 33°51' E 033°06'1413.6
2015-Jul-26 16:34N 33°43' E 033°19'1413.9
2015-Jul-26 15:33N 33°36' E 033°33'1514.0
2015-Jul-26 14:27N 33°28' E 033°49'1514.2
2015-Jul-26 13:23N 33°20' E 034°05'43 3.5
2015-Jul-26 01:15N 32°54' E 034°45'3312.0
2015-Jul-25 22:27N 33°00' E 034°06'1212.3
2015-Jul-25 21:30N 33°05' E 033°54'1312.8
2015-Jul-25 20:29N 33°13' E 033°41'1312.8
2015-Jul-25 19:29N 33°20' E 033°28'1212.9
2015-Jul-25 18:32N 33°27' E 033°16'1212.3
2015-Jul-25 17:33N 33°34' E 033°05'1312.1
2015-Jul-25 16:26N 33°42' E 032°51'1112.6
2015-Jul-25 15:33N 33°49' E 032°41'1313.1
2015-Jul-25 14:33N 33°56' E 032°28'5712.6
2015-Jul-25 10:03N 34°30' E 031°33'612.8
2015-Jul-25 09:33N 34°34' E 031°27'316 8.7
2015-Jul-23 21:17N 37°18' E 025°53'811.3
2015-Jul-23 20:33N 37°18' E 025°43'1111.1
2015-Jul-23 19:33N 37°18' E 025°29'1110.8
2015-Jul-23 18:33N 37°19' E 025°15'9 8.8
2015-Jul-23 17:33N 37°26' E 025°10'8 7.7
2015-Jul-23 16:32N 37°28' E 025°19'0 0.0
2015-Jul-23 15:32N 37°28' E 025°19'0 0.0
2015-Jul-23 14:32N 37°28' E 025°19'0 0.0
2015-Jul-23 13:32N 37°28' E 025°19'0 0.0
2015-Jul-23 12:32N 37°28' E 025°19'0 0.0
2015-Jul-23 11:32N 37°28' E 025°19'0 0.0
2015-Jul-23 10:32N 37°28' E 025°19'0 0.0
2015-Jul-23 09:32N 37°28' E 025°19'0 0.0
2015-Jul-23 08:32N 37°28' E 025°19'0 0.0
2015-Jul-23 07:32N 37°28' E 025°19'0 0.0
2015-Jul-23 06:32N 37°28' E 025°19'0 0.0
2015-Jul-23 05:32N 37°28' E 025°19'0 0.0
2015-Jul-23 04:32N 37°28' E 025°19'3 3.2
2015-Jul-23 03:33N 37°28' E 025°15'1010.1
2015-Jul-23 02:33N 37°32' E 025°03'1 0.7
2015-Jul-23 01:33N 37°32' E 025°04'0 0.2
2015-Jul-23 00:34N 37°31' E 025°04'0 0.3
2015-Jul-22 23:34N 37°32' E 025°04'2 2.0
2015-Jul-22 22:33N 37°34' E 025°03'2 2.1
2015-Jul-22 21:34N 37°36' E 025°02'0 0.2
2015-Jul-22 20:33N 37°36' E 025°02'0 0.3
2015-Jul-22 19:33N 37°35' E 025°02'3 2.8
2015-Jul-22 18:33N 37°33' E 025°03'8 8.3
2015-Jul-22 17:34N 37°26' E 024°57'0 0.4
2015-Jul-22 16:32N 37°26' E 024°57'0 0.0
2015-Jul-22 15:32N 37°26' E 024°57'0 0.0
2015-Jul-22 14:29N 37°26' E 024°57'0 0.0
2015-Jul-22 13:32N 37°26' E 024°57'0 0.0
2015-Jul-22 12:29N 37°26' E 024°57'0 0.0
2015-Jul-22 11:32N 37°26' E 024°57'0 0.0
2015-Jul-22 10:32N 37°26' E 024°57'0 0.0
2015-Jul-22 09:32N 37°26' E 024°57'0 0.0
2015-Jul-22 08:26N 37°26' E 024°57'0 0.0
2015-Jul-22 07:29N 37°26' E 024°57'0 0.0
2015-Jul-22 06:32N 37°26' E 024°57'0 0.0
2015-Jul-22 05:32N 37°26' E 024°57'0 0.0
2015-Jul-22 04:32N 37°26' E 024°57'0 0.0
2015-Jul-22 03:32N 37°26' E 024°57'0 0.0
2015-Jul-22 02:32N 37°26' E 024°57'0 0.0
2015-Jul-22 01:32N 37°26' E 024°57'0 0.0
2015-Jul-22 00:32N 37°26' E 024°57'0 0.0
2015-Jul-21 23:29N 37°26' E 024°57'0 0.0
2015-Jul-21 22:32N 37°26' E 024°57'0 0.0
2015-Jul-21 21:32N 37°26' E 024°57'0 0.0
2015-Jul-21 20:32N 37°26' E 024°57'0 0.0
2015-Jul-21 19:33N 37°26' E 024°57'3 3.2
2015-Jul-21 18:33N 37°26' E 025°00'1110.6
2015-Jul-21 17:33N 37°15' E 024°60'1111.4
2015-Jul-21 16:33N 37°04' E 024°57'3012.5
2015-Jul-21 14:11N 36°38' E 025°16'813.4
2015-Jul-21 13:34N 36°31' E 025°20'7 7.3
2015-Jul-21 12:33N 36°25' E 025°25'0 0.1
2015-Jul-21 11:32N 36°25' E 025°25'0 0.1
2015-Jul-21 10:32N 36°25' E 025°25'0 0.3
2015-Jul-21 09:32N 36°25' E 025°25'0 0.2
2015-Jul-21 08:33N 36°25' E 025°25'0 0.2
2015-Jul-21 07:33N 36°24' E 025°25'0 0.2
2015-Jul-21 06:32N 36°25' E 025°25'1 1.3
2015-Jul-21 05:32N 36°23' E 025°25'0 0.2
2015-Jul-21 04:32N 36°23' E 025°25'5 4.7
2015-Jul-21 03:33N 36°20' E 025°22'1211.8
2015-Jul-21 02:33N 36°11' E 025°32'1310.8
2015-Jul-21 01:24N 36°03' E 025°44'910.4
2015-Jul-21 00:32N 35°57' E 025°52'1110.7
2015-Jul-20 23:33N 35°50' E 026°02'1211.0
2015-Jul-20 22:29N 35°43' E 026°14'1411.2
2015-Jul-20 21:13N 35°34' E 026°27'911.3
2015-Jul-20 20:24N 35°28' E 026°35'1011.0
2015-Jul-20 19:29N 35°21' E 026°45'1311.7
2015-Jul-20 18:23N 35°15' E 026°58'1212.6
2015-Jul-20 17:26N 35°10' E 027°12'1212.3
2015-Jul-20 16:27N 35°06' E 027°26'1111.7
2015-Jul-20 15:33N 35°02' E 027°38'1211.3
2015-Jul-20 14:31N 34°58' E 027°51'1411.8
2015-Jul-20 13:22N 34°54' E 028°07'12712.8
2015-Jul-20 03:25N 34°09' E 030°31'1214.1
2015-Jul-20 02:34N 34°05' E 030°45'1714.3
2015-Jul-20 01:22N 33°59' E 031°04'1214.3
2015-Jul-20 00:32N 33°55' E 031°18'1414.2
2015-Jul-19 23:34N 33°51' E 031°34'1413.9
2015-Jul-19 22:34N 33°46' E 031°49'1413.8
2015-Jul-19 21:33N 33°42' E 032°05'1413.8
2015-Jul-19 20:33N 33°37' E 032°21'1413.8
2015-Jul-19 19:33N 33°32' E 032°36'1413.8
2015-Jul-19 18:33N 33°28' E 032°52'1414.0
2015-Jul-19 17:33N 33°23' E 033°08'1414.1
2015-Jul-19 16:33N 33°19' E 033°24'1414.3
2015-Jul-19 15:33N 33°14' E 033°40'1414.1
2015-Jul-19 14:33N 33°09' E 033°56'1514.2
2015-Jul-19 13:32N 33°04' E 034°12'1313.9
2015-Jul-19 12:34N 32°59' E 034°27'1413.8
2015-Jul-19 11:34N 32°56' E 034°43'16 2.5
2015-Jul-19 05:19N 32°49' E 035°00'29 6.0
2015-Jul-19 00:29N 33°04' E 034°30'1111.5
2015-Jul-18 23:33N 33°14' E 034°26'1111.5
2015-Jul-18 22:34N 33°24' E 034°20'1211.5
2015-Jul-18 21:33N 33°35' E 034°15'1111.4
2015-Jul-18 20:33N 33°46' E 034°10'1211.8
2015-Jul-18 19:31N 33°57' E 034°04'1211.8
2015-Jul-18 18:33N 34°07' E 033°58'1212.1
2015-Jul-18 17:33N 34°18' E 033°52'1312.2
2015-Jul-18 16:31N 34°30' E 033°48'1212.3
2015-Jul-18 15:33N 34°42' E 033°44'6 0.5
2015-Jul-18 03:33N 34°47' E 033°43'9 8.7
2015-Jul-18 02:30N 34°39' E 033°45'7 7.8
2015-Jul-18 01:33N 34°31' E 033°47'8 7.9
2015-Jul-18 00:33N 34°24' E 033°50'  
Track history (hours):
 
Tides and Currents Weather Stations Pressure Air Temp Water Temp Dewpoint Dewpoint Depression Visibility Wind Speed Wind Dir Waves Ship Positions

Golden Iris

Last reported at 2015-Jul-27 23:33 UTC. Time now 2015-Jul-28 01:29 UTC.
Position N 36°20' E 027°39'.

Length 180 m; draft 6 m.

Type: Passenger vessel. MMSI: 371771000.

Date/timePositionNaut miles runAvg speedWind from/ knotsBaromVisibWave heightAir tempDewpointWater temp
2015-Jul-27 23:33N 36°20' E 027°39'213 9.2
2015-Jul-27 00:19N 34°41' E 031°31'1213.8
2015-Jul-26 23:28N 34°35' E 031°43'1314.0
2015-Jul-26 22:33N 34°28' E 031°56'1414.0
2015-Jul-26 21:34N 34°21' E 032°10'1414.2
2015-Jul-26 20:33N 34°13' E 032°25'1413.8
2015-Jul-26 19:33N 34°05' E 032°39'1413.4
2015-Jul-26 18:33N 33°58' E 032°52'1313.2
2015-Jul-26 17:33N 33°51' E 033°06'1413.6
2015-Jul-26 16:34N 33°43' E 033°19'1413.9
2015-Jul-26 15:33N 33°36' E 033°33'1514.0
2015-Jul-26 14:27N 33°28' E 033°49'1514.2
2015-Jul-26 13:23N 33°20' E 034°05'43 3.5
2015-Jul-26 01:15N 32°54' E 034°45'3312.0
2015-Jul-25 22:27N 33°00' E 034°06'1212.3
2015-Jul-25 21:30N 33°05' E 033°54'1312.8
2015-Jul-25 20:29N 33°13' E 033°41'1312.8
2015-Jul-25 19:29N 33°20' E 033°28'1212.9
2015-Jul-25 18:32N 33°27' E 033°16'1212.3
2015-Jul-25 17:33N 33°34' E 033°05'1312.1
2015-Jul-25 16:26N 33°42' E 032°51'1112.6
2015-Jul-25 15:33N 33°49' E 032°41'1313.1
2015-Jul-25 14:33N 33°56' E 032°28'5712.6
2015-Jul-25 10:03N 34°30' E 031°33'612.8
2015-Jul-25 09:33N 34°34' E 031°27'316 8.7
2015-Jul-23 21:17N 37°18' E 025°53'811.3
2015-Jul-23 20:33N 37°18' E 025°43'1111.1
2015-Jul-23 19:33N 37°18' E 025°29'1110.8
2015-Jul-23 18:33N 37°19' E 025°15'9 8.8
2015-Jul-23 17:33N 37°26' E 025°10'8 7.7
2015-Jul-23 16:32N 37°28' E 025°19'0 0.0
2015-Jul-23 15:32N 37°28' E 025°19'0 0.0
2015-Jul-23 14:32N 37°28' E 025°19'0 0.0
2015-Jul-23 13:32N 37°28' E 025°19'0 0.0
2015-Jul-23 12:32N 37°28' E 025°19'0 0.0
2015-Jul-23 11:32N 37°28' E 025°19'0 0.0
2015-Jul-23 10:32N 37°28' E 025°19'0 0.0
2015-Jul-23 09:32N 37°28' E 025°19'0 0.0
2015-Jul-23 08:32N 37°28' E 025°19'0 0.0
2015-Jul-23 07:32N 37°28' E 025°19'0 0.0
2015-Jul-23 06:32N 37°28' E 025°19'0 0.0
2015-Jul-23 05:32N 37°28' E 025°19'0 0.0
2015-Jul-23 04:32N 37°28' E 025°19'3 3.2
2015-Jul-23 03:33N 37°28' E 025°15'1010.1
2015-Jul-23 02:33N 37°32' E 025°03'1 0.7
2015-Jul-23 01:33N 37°32' E 025°04'0 0.2
2015-Jul-23 00:34N 37°31' E 025°04'0 0.3
2015-Jul-22 23:34N 37°32' E 025°04'2 2.0
2015-Jul-22 22:33N 37°34' E 025°03'2 2.1
2015-Jul-22 21:34N 37°36' E 025°02'0 0.2
2015-Jul-22 20:33N 37°36' E 025°02'0 0.3
2015-Jul-22 19:33N 37°35' E 025°02'3 2.8
2015-Jul-22 18:33N 37°33' E 025°03'8 8.3
2015-Jul-22 17:34N 37°26' E 024°57'0 0.4
2015-Jul-22 16:32N 37°26' E 024°57'0 0.0
2015-Jul-22 15:32N 37°26' E 024°57'0 0.0
2015-Jul-22 14:29N 37°26' E 024°57'0 0.0
2015-Jul-22 13:32N 37°26' E 024°57'0 0.0
2015-Jul-22 12:29N 37°26' E 024°57'0 0.0
2015-Jul-22 11:32N 37°26' E 024°57'0 0.0
2015-Jul-22 10:32N 37°26' E 024°57'0 0.0
2015-Jul-22 09:32N 37°26' E 024°57'0 0.0
2015-Jul-22 08:26N 37°26' E 024°57'0 0.0
2015-Jul-22 07:29N 37°26' E 024°57'0 0.0
2015-Jul-22 06:32N 37°26' E 024°57'0 0.0
2015-Jul-22 05:32N 37°26' E 024°57'0 0.0
2015-Jul-22 04:32N 37°26' E 024°57'0 0.0
2015-Jul-22 03:32N 37°26' E 024°57'0 0.0
2015-Jul-22 02:32N 37°26' E 024°57'0 0.0
2015-Jul-22 01:32N 37°26' E 024°57'0 0.0
2015-Jul-22 00:32N 37°26' E 024°57'0 0.0
2015-Jul-21 23:29N 37°26' E 024°57'0 0.0
2015-Jul-21 22:32N 37°26' E 024°57'0 0.0
2015-Jul-21 21:32N 37°26' E 024°57'0 0.0
2015-Jul-21 20:32N 37°26' E 024°57'0 0.0
2015-Jul-21 19:33N 37°26' E 024°57'3 3.2
2015-Jul-21 18:33N 37°26' E 025°00'1110.6
2015-Jul-21 17:33N 37°15' E 024°60'1111.4
2015-Jul-21 16:33N 37°04' E 024°57'3012.5
2015-Jul-21 14:11N 36°38' E 025°16'813.4
2015-Jul-21 13:34N 36°31' E 025°20'7 7.3
2015-Jul-21 12:33N 36°25' E 025°25'0 0.1
2015-Jul-21 11:32N 36°25' E 025°25'0 0.1
2015-Jul-21 10:32N 36°25' E 025°25'0 0.3
2015-Jul-21 09:32N 36°25' E 025°25'0 0.2
2015-Jul-21 08:33N 36°25' E 025°25'0 0.2
2015-Jul-21 07:33N 36°24' E 025°25'0 0.2
2015-Jul-21 06:32N 36°25' E 025°25'1 1.3
2015-Jul-21 05:32N 36°23' E 025°25'0 0.2
2015-Jul-21 04:32N 36°23' E 025°25'5 4.7
2015-Jul-21 03:33N 36°20' E 025°22'1211.8
2015-Jul-21 02:33N 36°11' E 025°32'1310.8
2015-Jul-21 01:24N 36°03' E 025°44'910.4
2015-Jul-21 00:32N 35°57' E 025°52'1110.7
2015-Jul-20 23:33N 35°50' E 026°02'1211.0
2015-Jul-20 22:29N 35°43' E 026°14'1411.2
2015-Jul-20 21:13N 35°34' E 026°27'911.3
2015-Jul-20 20:24N 35°28' E 026°35'1011.0
2015-Jul-20 19:29N 35°21' E 026°45'1311.7
2015-Jul-20 18:23N 35°15' E 026°58'1212.6
2015-Jul-20 17:26N 35°10' E 027°12'1212.3
2015-Jul-20 16:27N 35°06' E 027°26'1111.7
2015-Jul-20 15:33N 35°02' E 027°38'1211.3
2015-Jul-20 14:31N 34°58' E 027°51'1411.8
2015-Jul-20 13:22N 34°54' E 028°07'12712.8
2015-Jul-20 03:25N 34°09' E 030°31'1214.1
2015-Jul-20 02:34N 34°05' E 030°45'1714.3
2015-Jul-20 01:22N 33°59' E 031°04'1214.3
2015-Jul-20 00:32N 33°55' E 031°18'1414.2
2015-Jul-19 23:34N 33°51' E 031°34'1413.9
2015-Jul-19 22:34N 33°46' E 031°49'1413.8
2015-Jul-19 21:33N 33°42' E 032°05'1413.8
2015-Jul-19 20:33N 33°37' E 032°21'1413.8
2015-Jul-19 19:33N 33°32' E 032°36'1413.8
2015-Jul-19 18:33N 33°28' E 032°52'1414.0
2015-Jul-19 17:33N 33°23' E 033°08'1414.1
2015-Jul-19 16:33N 33°19' E 033°24'1414.3
2015-Jul-19 15:33N 33°14' E 033°40'1414.1
2015-Jul-19 14:33N 33°09' E 033°56'1514.2
2015-Jul-19 13:32N 33°04' E 034°12'1313.9
2015-Jul-19 12:34N 32°59' E 034°27'1413.8
2015-Jul-19 11:34N 32°56' E 034°43'16 2.5
2015-Jul-19 05:19N 32°49' E 035°00'29 6.0
2015-Jul-19 00:29N 33°04' E 034°30'1111.5
2015-Jul-18 23:33N 33°14' E 034°26'1111.5
2015-Jul-18 22:34N 33°24' E 034°20'1211.5
2015-Jul-18 21:33N 33°35' E 034°15'1111.4
2015-Jul-18 20:33N 33°46' E 034°10'1211.8
2015-Jul-18 19:31N 33°57' E 034°04'1211.8
2015-Jul-18 18:33N 34°07' E 033°58'1212.1
2015-Jul-18 17:33N 34°18' E 033°52'1312.2
2015-Jul-18 16:31N 34°30' E 033°48'1212.3
2015-Jul-18 15:33N 34°42' E 033°44'6 0.5
2015-Jul-18 03:33N 34°47' E 033°43'9 8.7
2015-Jul-18 02:30N 34°39' E 033°45'7 7.8
2015-Jul-18 01:33N 34°31' E 033°47'8 7.9
2015-Jul-18 00:33N 34°24' E 033°50'  

Dump ship's entire track history